Terminal Aerodrome Forecast
Issued by NWS

Home | Current Version | Previous Version | Text Only | Print | Product List | Glossary Off
Versions: 1 2 3 4 5 6 7 8 9 10 11 12 13 14 15

450
FTUS43 KBIS 241606 AAB
TAFMOT
TAF AMD
KMOT 241606Z 2416/2512 30018G25KT P6SM OVC023
     FM241800 32017G25KT P6SM BKN025 BKN035
     FM242200 33017G25KT P6SM SCT035 SCT070
     FM250200 32009KT P6SM FEW050
     FM250800 26005KT P6SM BKN060=

USA.gov is the U.S. government's official web portal to all federal, state and local government web resources and services.